createdAt,value
2018-08-18T00:01:00.792Z,18.68
2018-08-18T00:03:28.331Z,18.69
2018-08-18T00:05:55.918Z,18.75
2018-08-18T00:08:23.511Z,18.75
2018-08-18T00:10:51.166Z,18.80
2018-08-18T00:13:18.815Z,18.90
2018-08-18T00:15:46.675Z,18.86
2018-08-18T00:18:14.223Z,18.86
2018-08-18T00:20:41.758Z,18.80
2018-08-18T00:23:09.634Z,18.76
2018-08-18T00:25:37.137Z,18.86
2018-08-18T00:28:10.383Z,18.87
2018-08-18T00:30:37.935Z,18.98
2018-08-18T00:33:05.526Z,18.85
2018-08-18T00:35:33.113Z,18.79
2018-08-18T00:38:00.655Z,18.74
2018-08-18T00:40:28.178Z,18.74
2018-08-18T00:42:55.721Z,18.72
2018-08-18T00:45:23.323Z,18.75
2018-08-18T00:47:50.918Z,18.77
2018-08-18T00:50:56.250Z,18.77
2018-08-18T00:53:23.778Z,18.82
2018-08-18T00:55:51.304Z,18.74
2018-08-18T00:58:26.286Z,18.69
2018-08-18T01:01:00.390Z,18.63
2018-08-18T01:03:27.938Z,18.57
2018-08-18T01:06:06.373Z,18.66
2018-08-18T01:08:33.969Z,18.66
2018-08-18T01:11:02.033Z,18.69
2018-08-18T01:13:29.482Z,18.60
2018-08-18T01:15:57.029Z,18.62
2018-08-18T01:18:24.703Z,18.57
2018-08-18T01:20:52.230Z,18.62
2018-08-18T01:23:19.754Z,18.59
2018-08-18T01:25:47.298Z,18.55
2018-08-18T01:28:14.815Z,18.54
2018-08-18T01:30:42.401Z,18.58
2018-08-18T01:33:10.298Z,18.61
2018-08-18T01:35:37.844Z,18.64
2018-08-18T01:38:05.355Z,18.63
2018-08-18T01:40:33.043Z,18.66
2018-08-18T01:43:01.356Z,18.62
2018-08-18T01:45:28.876Z,18.57
2018-08-18T01:47:56.407Z,18.61
2018-08-18T01:50:23.935Z,18.64
2018-08-18T01:52:51.798Z,18.64
2018-08-18T01:55:19.315Z,18.61
2018-08-18T01:57:47.619Z,18.62
2018-08-18T02:00:20.882Z,18.66
2018-08-18T02:02:48.419Z,18.62
2018-08-18T02:05:17.279Z,18.58
2018-08-18T02:07:44.878Z,18.57
2018-08-18T02:10:12.473Z,18.62
2018-08-18T02:12:44.558Z,18.53
2018-08-18T02:15:12.108Z,18.56
2018-08-18T02:17:39.934Z,18.58
2018-08-18T02:20:08.237Z,18.60
2018-08-18T02:22:36.731Z,18.57
2018-08-18T02:25:04.714Z,18.54
2018-08-18T02:27:35.408Z,18.52
2018-08-18T02:30:20.503Z,18.53
2018-08-18T02:32:48.064Z,18.48
2018-08-18T02:35:16.322Z,18.52
2018-08-18T02:37:43.889Z,18.50
2018-08-18T02:40:12.205Z,18.43
2018-08-18T02:42:39.943Z,18.39
2018-08-18T02:45:08.174Z,18.39
2018-08-18T02:47:35.718Z,18.41
2018-08-18T02:50:03.814Z,18.45
2018-08-18T02:52:32.097Z,18.51
2018-08-18T02:55:00.782Z,18.55
2018-08-18T02:57:30.615Z,18.45
2018-08-18T02:59:59.501Z,18.59
2018-08-18T03:02:27.039Z,18.52
2018-08-18T03:04:54.947Z,18.64
2018-08-18T03:07:22.893Z,18.57
2018-08-18T03:09:50.459Z,18.47
2018-08-18T03:12:18.062Z,18.41
2018-08-18T03:14:45.645Z,18.34
2018-08-18T03:17:13.174Z,18.24
2018-08-18T03:19:42.243Z,18.31
2018-08-18T03:22:10.107Z,18.29
2018-08-18T03:24:37.606Z,18.24
2018-08-18T03:27:05.186Z,18.18
2018-08-18T03:30:03.752Z,18.15
2018-08-18T03:32:31.281Z,18.06
2018-08-18T03:34:58.805Z,17.97
2018-08-18T03:37:27.614Z,17.95
2018-08-18T03:39:55.562Z,18.04
2018-08-18T03:42:27.933Z,18.06
2018-08-18T03:44:56.023Z,18.03
2018-08-18T03:47:23.569Z,18.05
2018-08-18T03:49:51.096Z,18.04
2018-08-18T03:52:18.716Z,18.13
2018-08-18T03:54:46.265Z,17.91
2018-08-18T03:57:13.774Z,18.00
2018-08-18T03:59:41.484Z,17.98
2018-08-18T04:02:09.717Z,17.89
2018-08-18T04:04:37.513Z,17.86
2018-08-18T04:07:06.790Z,18.04
2018-08-18T04:09:36.209Z,17.98
2018-08-18T04:12:04.991Z,18.11
2018-08-18T04:14:42.898Z,17.96
2018-08-18T04:17:16.032Z,17.90
2018-08-18T04:19:44.806Z,17.87
2018-08-18T04:22:12.345Z,17.88
2018-08-18T04:24:45.735Z,17.89
2018-08-18T04:27:18.651Z,17.97
2018-08-18T04:29:46.451Z,18.05
2018-08-18T04:32:14.006Z,18.01
2018-08-18T04:34:41.519Z,18.06
2018-08-18T04:37:09.063Z,18.03
2018-08-18T04:39:36.595Z,18.06
2018-08-18T04:42:04.762Z,18.08
2018-08-18T04:44:32.312Z,18.02
2018-08-18T04:46:59.885Z,18.02
2018-08-18T04:49:27.427Z,17.99
2018-08-18T04:51:54.962Z,18.07
2018-08-18T04:54:22.481Z,18.04
2018-08-18T04:56:50.118Z,18.03
2018-08-18T04:59:17.676Z,18.03
2018-08-18T05:01:45.194Z,18.13
2018-08-18T05:04:13.064Z,18.19
2018-08-18T05:06:41.848Z,18.09
2018-08-18T05:09:10.614Z,18.04
2018-08-18T05:11:38.506Z,18.08
2018-08-18T05:14:06.060Z,18.17
2018-08-18T05:16:33.612Z,18.16
2018-08-18T05:19:01.247Z,18.10
2018-08-18T05:21:28.741Z,18.17
2018-08-18T05:23:56.418Z,18.11
2018-08-18T05:26:23.969Z,18.18
2018-08-18T05:28:51.485Z,18.04
2018-08-18T05:31:20.539Z,18.06
2018-08-18T05:33:48.534Z,18.17
2018-08-18T05:36:16.102Z,18.22
2018-08-18T05:38:43.689Z,18.25
2018-08-18T05:41:11.729Z,18.32
2018-08-18T05:43:39.335Z,18.26
2018-08-18T05:46:06.940Z,18.31
2018-08-18T05:48:34.658Z,18.31
2018-08-18T05:51:02.451Z,18.34
2018-08-18T05:53:33.958Z,18.39
2018-08-18T05:56:02.282Z,18.40
2018-08-18T05:58:40.073Z,18.43
2018-08-18T06:01:17.839Z,18.56
2018-08-18T06:03:45.401Z,18.51
2018-08-18T06:06:12.963Z,18.60
2018-08-18T06:08:40.610Z,18.60
2018-08-18T06:11:08.471Z,18.65
2018-08-18T06:13:36.007Z,18.70
2018-08-18T06:16:08.154Z,18.73
2018-08-18T06:18:37.273Z,18.80
2018-08-18T06:21:05.532Z,18.87
2018-08-18T06:23:33.128Z,19.11
2018-08-18T06:26:01.901Z,19.32
2018-08-18T06:28:29.495Z,19.41
2018-08-18T06:30:57.068Z,19.45
2018-08-18T06:33:24.644Z,19.46
2018-08-18T06:35:52.223Z,19.53
2018-08-18T06:38:19.799Z,19.52
2018-08-18T06:40:49.991Z,19.48
2018-08-18T06:43:17.530Z,19.36
2018-08-18T06:45:45.103Z,19.43
2018-08-18T06:48:18.286Z,19.52
2018-08-18T06:50:46.626Z,19.56
2018-08-18T06:53:14.177Z,19.67
2018-08-18T06:55:41.734Z,19.64
2018-08-18T06:58:09.373Z,19.78
2018-08-18T07:00:36.922Z,19.83
2018-08-18T07:03:10.196Z,19.87
2018-08-18T07:05:37.728Z,19.88
2018-08-18T07:08:05.562Z,19.78
2018-08-18T07:10:34.455Z,19.75
2018-08-18T07:13:03.382Z,19.83
2018-08-18T07:15:33.056Z,19.85
2018-08-18T07:18:00.703Z,19.74
2018-08-18T07:20:28.235Z,19.77
2018-08-18T07:22:55.794Z,19.81
2018-08-18T07:25:23.465Z,19.82
2018-08-18T07:27:58.948Z,19.59
2018-08-18T07:30:28.554Z,19.77
2018-08-18T07:32:56.843Z,19.85
2018-08-18T07:35:24.527Z,19.79
2018-08-18T07:37:52.476Z,20.01
2018-08-18T07:40:44.241Z,20.07
2018-08-18T07:43:13.449Z,20.09
2018-08-18T07:45:41.115Z,20.08
2018-08-18T07:48:08.755Z,20.05
2018-08-18T07:50:36.690Z,20.08
2018-08-18T07:53:04.301Z,20.18
2018-08-18T07:55:32.059Z,20.22
2018-08-18T07:58:01.074Z,20.37
2018-08-18T08:00:30.189Z,20.64
2018-08-18T08:02:57.945Z,21.11
2018-08-18T08:05:25.538Z,21.25
2018-08-18T08:07:53.063Z,21.25
2018-08-18T08:10:20.722Z,21.41
2018-08-18T08:12:48.394Z,21.20
2018-08-18T08:15:16.259Z,21.18
2018-08-18T08:17:44.822Z,21.28
2018-08-18T08:20:12.498Z,21.29
2018-08-18T08:22:40.200Z,21.38
2018-08-18T08:25:08.454Z,21.58
2018-08-18T08:27:36.037Z,21.61
2018-08-18T08:30:04.126Z,21.76
2018-08-18T08:32:31.654Z,21.95
2018-08-18T08:35:00.995Z,22.09
2018-08-18T08:37:28.638Z,22.13
2018-08-18T08:39:56.533Z,22.25
2018-08-18T08:42:24.092Z,22.56
2018-08-18T08:44:53.694Z,22.87
2018-08-18T08:47:21.243Z,23.17
2018-08-18T08:49:49.012Z,23.49
2018-08-18T08:52:16.598Z,23.87
2018-08-18T08:54:44.158Z,24.10
2018-08-18T08:57:11.706Z,24.26
2018-08-18T08:59:40.273Z,23.64
2018-08-18T09:02:09.377Z,23.46
2018-08-18T09:04:36.939Z,23.33
2018-08-18T09:07:05.368Z,23.20
2018-08-18T09:09:32.925Z,23.17
2018-08-18T09:12:01.019Z,23.20
2018-08-18T09:14:28.602Z,23.34
2018-08-18T09:16:56.402Z,23.19
2018-08-18T09:19:24.904Z,23.41
2018-08-18T09:21:53.718Z,23.97
2018-08-18T09:24:24.583Z,24.17
2018-08-18T09:26:54.034Z,24.85
2018-08-18T09:29:22.042Z,25.30
2018-08-18T09:31:49.620Z,25.39
2018-08-18T09:34:17.202Z,25.83
2018-08-18T09:36:45.921Z,25.64
2018-08-18T09:39:19.536Z,25.47
2018-08-18T09:41:47.139Z,25.69
2018-08-18T09:44:21.051Z,25.17
2018-08-18T09:46:49.967Z,24.93
2018-08-18T09:49:17.528Z,24.77
2018-08-18T09:51:45.090Z,24.72
2018-08-18T09:54:12.713Z,25.04
2018-08-18T09:56:40.552Z,24.95
2018-08-18T09:59:08.129Z,24.97
2018-08-18T10:01:35.777Z,25.91
2018-08-18T10:04:03.347Z,26.62
2018-08-18T10:06:31.278Z,27.82
2018-08-18T10:08:58.842Z,28.28
2018-08-18T10:11:26.543Z,27.84
2018-08-18T10:13:54.105Z,27.71
2018-08-18T10:16:21.941Z,27.14
2018-08-18T10:18:49.530Z,26.99
2018-08-18T10:21:17.103Z,27.13
2018-08-18T10:23:44.684Z,27.11
2018-08-18T10:26:12.322Z,27.04
2018-08-18T10:28:40.686Z,27.26
2018-08-18T10:31:08.643Z,27.87
2018-08-18T10:33:36.235Z,28.21
2018-08-18T10:36:03.923Z,28.24
2018-08-18T10:38:31.796Z,28.27
2018-08-18T10:41:01.625Z,27.92
2018-08-18T10:43:29.244Z,28.14
2018-08-18T10:45:56.811Z,27.68
2018-08-18T10:48:24.794Z,27.72
2018-08-18T10:51:25.351Z,28.05
2018-08-18T10:53:53.761Z,28.01
2018-08-18T10:56:21.696Z,28.13
2018-08-18T10:58:59.488Z,28.43
2018-08-18T11:01:27.115Z,28.89
2018-08-18T11:03:54.834Z,28.81
2018-08-18T11:06:26.868Z,28.93
2018-08-18T11:08:55.006Z,28.65
2018-08-18T11:11:22.574Z,28.49
2018-08-18T11:13:50.087Z,28.46
2018-08-18T11:16:17.630Z,28.25
2018-08-18T11:18:45.215Z,28.06
2018-08-18T11:21:12.813Z,27.77
2018-08-18T11:23:40.352Z,28.07
2018-08-18T11:26:07.895Z,27.95
2018-08-18T11:28:36.135Z,27.43
2018-08-18T11:31:03.689Z,26.98
2018-08-18T11:33:40.726Z,27.27
2018-08-18T11:36:09.311Z,27.53
2018-08-18T11:38:36.871Z,27.55
2018-08-18T11:41:04.478Z,27.94
2018-08-18T11:43:33.381Z,28.33
2018-08-18T11:46:01.321Z,28.82
2018-08-18T11:48:28.871Z,28.90
2018-08-18T11:50:56.798Z,28.28
2018-08-18T11:53:24.386Z,27.96
2018-08-18T11:55:51.959Z,27.62
2018-08-18T11:58:22.328Z,27.74
2018-08-18T12:00:52.323Z,27.49
2018-08-18T12:03:21.494Z,27.16
2018-08-18T12:05:53.083Z,27.29
2018-08-18T12:08:22.194Z,27.71
2018-08-18T12:10:50.885Z,27.78
2018-08-18T12:13:26.658Z,27.96
2018-08-18T12:16:00.207Z,27.60
2018-08-18T12:18:29.129Z,27.43
2018-08-18T12:20:57.899Z,26.96
2018-08-18T12:23:25.613Z,26.95
2018-08-18T12:25:58.946Z,27.26
2018-08-18T12:28:31.494Z,26.82
2018-08-18T12:30:59.111Z,26.76
2018-08-18T12:33:26.962Z,26.92
2018-08-18T12:35:54.500Z,26.84
2018-08-18T12:38:22.058Z,26.85
2018-08-18T12:40:49.581Z,26.54
2018-08-18T12:43:21.708Z,26.66
2018-08-18T12:45:53.808Z,26.65
2018-08-18T12:48:22.291Z,26.46
2018-08-18T12:50:49.853Z,26.29
2018-08-18T12:53:17.410Z,26.39
2018-08-18T12:55:49.622Z,26.38
2018-08-18T12:58:17.214Z,26.38
2018-08-18T13:00:44.747Z,26.41
2018-08-18T13:03:12.308Z,26.34
2018-08-18T13:05:39.861Z,26.21
2018-08-18T13:08:07.518Z,26.12
2018-08-18T13:10:35.050Z,26.21
2018-08-18T13:13:02.873Z,26.14
2018-08-18T13:15:30.420Z,26.08
2018-08-18T13:17:58.014Z,26.09
2018-08-18T13:20:26.439Z,26.27
2018-08-18T13:22:54.085Z,26.43
2018-08-18T13:25:21.713Z,26.42
2018-08-18T13:27:58.166Z,26.62
2018-08-18T13:30:26.886Z,26.50
2018-08-18T13:32:55.003Z,26.61
2018-08-18T13:35:22.585Z,26.51
2018-08-18T13:37:50.174Z,26.34
2018-08-18T13:40:17.827Z,26.48
2018-08-18T13:42:45.978Z,26.51
2018-08-18T13:45:13.916Z,26.43
2018-08-18T13:47:42.380Z,26.48
2018-08-18T13:50:13.654Z,26.53
2018-08-18T13:52:48.200Z,26.46
2018-08-18T13:55:15.768Z,26.50
2018-08-18T13:57:43.601Z,26.42
2018-08-18T14:00:13.184Z,26.25
2018-08-18T14:02:41.440Z,26.25
2018-08-18T14:05:09.883Z,26.07
2018-08-18T14:07:45.959Z,26.10
2018-08-18T14:10:13.510Z,26.08
2018-08-18T14:12:41.061Z,26.06
2018-08-18T14:15:08.628Z,25.92
2018-08-18T14:17:36.188Z,25.93
2018-08-18T14:20:04.336Z,25.76
2018-08-18T14:22:31.901Z,25.74
2018-08-18T14:24:59.474Z,25.75
2018-08-18T14:27:27.018Z,25.73
2018-08-18T14:29:54.641Z,25.91
2018-08-18T14:32:28.130Z,25.80
2018-08-18T14:35:04.697Z,25.90
2018-08-18T14:37:32.298Z,25.68
2018-08-18T14:39:59.886Z,25.74
2018-08-18T14:42:27.467Z,25.89
2018-08-18T14:44:56.113Z,26.03
2018-08-18T14:47:23.735Z,26.09
2018-08-18T14:49:55.899Z,26.04
2018-08-18T14:52:23.458Z,26.04
2018-08-18T14:54:51.060Z,25.96
2018-08-18T14:57:18.652Z,25.92
2018-08-18T14:59:46.802Z,25.81
2018-08-18T15:02:14.663Z,25.74
2018-08-18T15:04:42.213Z,25.67
2018-08-18T15:07:09.764Z,25.57
2018-08-18T15:09:41.863Z,25.60
2018-08-18T15:12:09.402Z,25.42
2018-08-18T15:14:37.158Z,25.59
2018-08-18T15:17:04.756Z,25.50
2018-08-18T15:19:32.342Z,25.48
2018-08-18T15:22:02.477Z,25.41
2018-08-18T15:24:30.046Z,25.40
2018-08-18T15:26:57.618Z,25.40
2018-08-18T15:29:25.175Z,25.52
2018-08-18T15:31:53.866Z,25.58
2018-08-18T15:34:21.414Z,25.50
2018-08-18T15:36:48.978Z,25.53
2018-08-18T15:39:16.605Z,25.56
2018-08-18T15:41:44.102Z,25.39
2018-08-18T15:44:11.690Z,25.45
2018-08-18T15:46:39.229Z,25.33
2018-08-18T15:49:06.814Z,25.27
2018-08-18T15:51:34.365Z,25.24
2018-08-18T15:54:02.903Z,25.19
2018-08-18T15:56:31.907Z,25.19
2018-08-18T15:59:00.267Z,25.21
2018-08-18T16:01:29.054Z,25.27
2018-08-18T16:03:58.771Z,25.25
2018-08-18T16:06:26.327Z,25.11
2018-08-18T16:08:54.462Z,25.17
2018-08-18T16:11:22.233Z,25.20
2018-08-18T16:13:49.953Z,25.11
2018-08-18T16:16:17.718Z,25.08
2018-08-18T16:18:45.729Z,25.04
2018-08-18T16:21:19.384Z,24.92
2018-08-18T16:23:46.958Z,24.90
2018-08-18T16:26:14.482Z,24.98
2018-08-18T16:28:42.819Z,24.92
2018-08-18T16:31:10.820Z,25.00
2018-08-18T16:33:38.463Z,25.03
2018-08-18T16:36:06.211Z,24.99
2018-08-18T16:38:33.737Z,24.95
2018-08-18T16:41:01.610Z,24.98
2018-08-18T16:43:31.258Z,24.98
2018-08-18T16:46:03.385Z,24.95
2018-08-18T16:48:30.942Z,24.89
2018-08-18T16:50:58.473Z,24.82
2018-08-18T16:53:26.029Z,24.75
2018-08-18T16:55:53.629Z,24.70
2018-08-18T16:58:21.178Z,24.71
2018-08-18T17:00:57.269Z,24.83
2018-08-18T17:03:31.278Z,24.82
2018-08-18T17:05:59.504Z,24.72
2018-08-18T17:08:27.244Z,24.56
2018-08-18T17:10:54.791Z,24.61
2018-08-18T17:13:22.706Z,24.54
2018-08-18T17:15:50.538Z,24.47
2018-08-18T17:18:18.094Z,24.51
2018-08-18T17:20:53.157Z,24.44
2018-08-18T17:23:20.813Z,24.45
2018-08-18T17:25:48.374Z,24.47
2018-08-18T17:28:15.922Z,24.46
2018-08-18T17:30:44.349Z,24.28
2018-08-18T17:33:12.998Z,24.27
2018-08-18T17:35:40.541Z,24.19
2018-08-18T17:38:08.099Z,24.20
2018-08-18T17:40:35.664Z,24.26
2018-08-18T17:43:03.222Z,24.10
2018-08-18T17:45:33.807Z,24.05
2018-08-18T17:48:01.956Z,24.04
2018-08-18T17:50:29.502Z,23.99
2018-08-18T17:52:57.059Z,24.03
2018-08-18T17:55:24.683Z,24.07
2018-08-18T17:57:52.236Z,24.02
2018-08-18T18:00:21.750Z,23.88
2018-08-18T18:02:55.202Z,23.92
2018-08-18T18:05:25.621Z,23.79
2018-08-18T18:07:54.779Z,23.74
2018-08-18T18:10:24.171Z,23.75
2018-08-18T18:12:52.494Z,23.70
2018-08-18T18:15:40.295Z,23.66
2018-08-18T18:18:08.695Z,23.63
2018-08-18T18:20:37.288Z,23.67
2018-08-18T18:23:07.533Z,23.55
2018-08-18T18:25:35.091Z,23.50
2018-08-18T18:28:03.007Z,23.53
2018-08-18T18:30:30.572Z,23.45
2018-08-18T18:32:58.734Z,23.34
2018-08-18T18:35:26.715Z,23.24
2018-08-18T18:37:56.421Z,23.19
2018-08-18T18:40:24.687Z,23.16
2018-08-18T18:42:52.453Z,23.17
2018-08-18T18:45:21.442Z,23.06
2018-08-18T18:47:49.083Z,22.99
2018-08-18T18:50:17.679Z,23.03
2018-08-18T18:52:45.667Z,22.96
2018-08-18T18:55:14.254Z,22.91
2018-08-18T18:57:47.493Z,22.93
2018-08-18T19:00:15.075Z,22.89
2018-08-18T19:02:43.149Z,22.86
2018-08-18T19:05:17.798Z,22.83
2018-08-18T19:07:47.155Z,22.72
2018-08-18T19:10:14.743Z,22.66
2018-08-18T19:12:42.253Z,22.73
2018-08-18T19:15:09.822Z,22.64
2018-08-18T19:17:37.402Z,22.60
2018-08-18T19:20:14.610Z,22.58
2018-08-18T19:22:42.327Z,22.48
2018-08-18T19:25:09.877Z,22.44
2018-08-18T19:27:37.422Z,22.39
2018-08-18T19:30:05.288Z,22.37
2018-08-18T19:32:32.886Z,22.44
2018-08-18T19:35:00.707Z,22.36
2018-08-18T19:37:28.762Z,22.32
2018-08-18T19:39:56.299Z,22.27
2018-08-18T19:42:23.878Z,22.26
2018-08-18T19:44:52.215Z,22.25
2018-08-18T19:47:29.174Z,22.26
2018-08-18T19:49:56.697Z,22.26
2018-08-18T19:52:24.256Z,22.28
2018-08-18T19:54:52.306Z,22.24
2018-08-18T19:57:26.067Z,22.28
2018-08-18T19:59:57.058Z,22.16
2018-08-18T20:02:24.744Z,22.29
2018-08-18T20:04:52.351Z,22.17
2018-08-18T20:07:20.251Z,22.05
2018-08-18T20:09:47.906Z,22.02
2018-08-18T20:12:15.455Z,21.95
2018-08-18T20:14:43.005Z,21.99
2018-08-18T20:17:10.595Z,22.00
2018-08-18T20:19:38.228Z,21.89
2018-08-18T20:22:07.191Z,21.72
2018-08-18T20:24:34.763Z,21.59
2018-08-18T20:27:02.350Z,21.62
2018-08-18T20:29:29.877Z,21.67
2018-08-18T20:31:59.054Z,21.61
2018-08-18T20:34:26.671Z,21.52
2018-08-18T20:36:54.190Z,21.45
2018-08-18T20:39:21.776Z,21.46
2018-08-18T20:41:49.774Z,21.44
2018-08-18T20:44:17.321Z,21.43
2018-08-18T20:46:44.867Z,21.41
2018-08-18T20:49:12.448Z,21.55
2018-08-18T20:51:39.994Z,21.46
2018-08-18T20:54:07.550Z,21.40
2018-08-18T20:56:35.202Z,21.33
2018-08-18T20:59:02.856Z,21.33
2018-08-18T21:01:30.394Z,21.33
2018-08-18T21:03:57.931Z,21.34
2018-08-18T21:06:25.534Z,21.26
2018-08-18T21:08:53.111Z,21.18
2018-08-18T21:11:20.687Z,21.14
2018-08-18T21:13:49.633Z,21.04
2018-08-18T21:16:17.794Z,21.01
2018-08-18T21:18:45.391Z,21.00
2018-08-18T21:21:23.003Z,20.85
2018-08-18T21:23:50.983Z,20.87
2018-08-18T21:26:18.567Z,20.92
2018-08-18T21:28:46.070Z,20.92
2018-08-18T21:31:16.359Z,20.89
2018-08-18T21:33:43.958Z,20.89
2018-08-18T21:36:11.514Z,20.87
2018-08-18T21:38:39.099Z,20.86
2018-08-18T21:41:06.650Z,20.91
2018-08-18T21:43:34.251Z,20.93
2018-08-18T21:46:01.832Z,20.87
2018-08-18T21:48:51.642Z,20.85
2018-08-18T21:51:21.692Z,20.70
2018-08-18T21:53:49.266Z,20.55
2018-08-18T21:56:17.117Z,20.63
2018-08-18T21:58:44.667Z,20.47
2018-08-18T22:01:17.790Z,20.37
2018-08-18T22:03:45.914Z,20.42
2018-08-18T22:06:13.734Z,20.40
2018-08-18T22:08:41.375Z,20.46
2018-08-18T22:11:12.095Z,20.45
2018-08-18T22:13:45.359Z,20.46
2018-08-18T22:16:12.906Z,20.43
2018-08-18T22:18:43.351Z,20.46
2018-08-18T22:21:15.685Z,20.46
2018-08-18T22:23:43.217Z,20.39
2018-08-18T22:26:19.642Z,20.35
2018-08-18T22:28:48.569Z,20.38
2018-08-18T22:31:16.115Z,20.36
2018-08-18T22:33:43.954Z,20.43
2018-08-18T22:36:11.486Z,20.37
2018-08-18T22:38:39.016Z,20.34
2018-08-18T22:41:06.950Z,20.16
2018-08-18T22:43:35.017Z,20.21
2018-08-18T22:46:02.690Z,20.22
2018-08-18T22:48:31.006Z,20.47
2018-08-18T22:50:58.534Z,20.38
2018-08-18T22:53:26.123Z,20.24
2018-08-18T22:55:53.685Z,20.28
2018-08-18T22:58:21.236Z,20.14
2018-08-18T23:00:53.346Z,20.16
2018-08-18T23:03:20.866Z,20.21
2018-08-18T23:05:48.488Z,20.23
2018-08-18T23:08:17.822Z,20.26
2018-08-18T23:10:45.679Z,20.23
2018-08-18T23:13:13.221Z,20.18
2018-08-18T23:15:40.827Z,20.32
2018-08-18T23:18:08.408Z,20.26
2018-08-18T23:20:36.164Z,20.32
2018-08-18T23:23:03.693Z,20.23
2018-08-18T23:25:32.617Z,20.28
2018-08-18T23:28:00.973Z,20.27
2018-08-18T23:30:38.670Z,20.23
2018-08-18T23:33:07.126Z,20.17
2018-08-18T23:35:34.756Z,20.14
2018-08-18T23:38:02.582Z,20.32
2018-08-18T23:40:30.231Z,20.42
2018-08-18T23:42:57.880Z,20.35
2018-08-18T23:45:33.323Z,20.27
2018-08-18T23:48:08.357Z,20.14
2018-08-18T23:50:36.531Z,20.22
2018-08-18T23:53:05.301Z,20.15
2018-08-18T23:55:32.866Z,20.04
2018-08-18T23:58:00.854Z,19.98
